createdAt,value
2018-01-23T00:01:08.717Z,21.18
2018-01-23T00:03:14.860Z,21.20
2018-01-23T00:05:20.990Z,21.11
2018-01-23T00:07:29.922Z,21.16
2018-01-23T00:09:36.791Z,21.19
2018-01-23T00:11:43.089Z,21.18
2018-01-23T00:13:49.062Z,21.16
2018-01-23T00:15:57.670Z,21.23
2018-01-23T00:18:05.213Z,21.19
2018-01-23T00:20:11.983Z,21.14
2018-01-23T00:22:17.759Z,21.13
2018-01-23T00:24:26.091Z,21.06
2018-01-23T00:26:36.180Z,21.04
2018-01-23T00:28:50.077Z,21.03
2018-01-23T00:31:01.141Z,21.02
2018-01-23T00:33:17.524Z,21.08
2018-01-23T00:35:23.828Z,21.13
2018-01-23T00:37:32.104Z,21.10
2018-01-23T00:39:38.675Z,21.12
2018-01-23T00:41:45.313Z,21.09
2018-01-23T00:43:51.862Z,21.02
2018-01-23T00:45:58.430Z,21.05
2018-01-23T00:48:05.194Z,21.04
2018-01-23T00:50:11.378Z,21.05
2018-01-23T00:52:17.120Z,21.01
2018-01-23T00:54:23.240Z,21.07
2018-01-23T00:56:29.434Z,20.98
2018-01-23T00:58:36.181Z,20.98
2018-01-23T01:00:44.004Z,21.01
2018-01-23T01:02:49.947Z,21.02
2018-01-23T01:04:55.902Z,20.96
2018-01-23T01:07:02.019Z,21.00
2018-01-23T01:09:08.335Z,20.98
2018-01-23T01:11:14.897Z,21.02
2018-01-23T01:13:21.387Z,21.05
2018-01-23T01:15:29.418Z,20.93
2018-01-23T01:17:35.470Z,20.93
2018-01-23T01:19:41.833Z,20.87
2018-01-23T01:21:47.738Z,20.93
2018-01-23T01:23:53.472Z,20.92
2018-01-23T01:26:00.321Z,21.02
2018-01-23T01:28:09.989Z,20.89
2018-01-23T01:30:25.922Z,20.92
2018-01-23T01:32:33.016Z,20.86
2018-01-23T01:34:43.932Z,20.85
2018-01-23T01:36:52.626Z,20.80
2018-01-23T01:38:58.738Z,20.93
2018-01-23T01:41:06.139Z,20.86
2018-01-23T01:43:16.577Z,20.90
2018-01-23T01:45:36.428Z,20.81
2018-01-23T01:47:45.824Z,20.76
2018-01-23T01:49:55.679Z,20.78
2018-01-23T01:52:10.854Z,20.80
2018-01-23T01:54:18.567Z,20.79
2018-01-23T01:56:26.364Z,20.73
2018-01-23T01:58:37.526Z,20.76
2018-01-23T02:00:47.776Z,20.80
2018-01-23T02:02:58.845Z,20.73
2018-01-23T02:05:07.689Z,20.73
2018-01-23T02:07:14.358Z,20.72
2018-01-23T02:09:20.702Z,20.77
2018-01-23T02:11:43.245Z,20.86
2018-01-23T02:13:49.537Z,20.92
2018-01-23T02:16:00.717Z,20.92
2018-01-23T02:18:13.096Z,20.92
2018-01-23T02:20:22.320Z,20.92
2018-01-23T02:22:32.881Z,20.97
2018-01-23T02:24:43.897Z,20.96
2018-01-23T02:26:59.221Z,21.05
2018-01-23T02:29:06.657Z,21.01
2018-01-23T02:31:13.693Z,21.05
2018-01-23T02:33:19.480Z,21.07
2018-01-23T02:35:30.135Z,20.96
2018-01-23T02:37:35.986Z,21.04
2018-01-23T02:39:42.103Z,21.00
2018-01-23T02:41:48.303Z,20.96
2018-01-23T02:43:54.439Z,20.97
2018-01-23T02:46:01.419Z,21.01
2018-01-23T02:48:08.776Z,20.95
2018-01-23T02:50:15.336Z,20.90
2018-01-23T02:52:21.732Z,20.96
2018-01-23T02:54:31.542Z,20.93
2018-01-23T02:56:37.733Z,20.95
2018-01-23T02:58:43.948Z,20.95
2018-01-23T03:00:50.863Z,20.86
2018-01-23T03:02:57.826Z,20.98
2018-01-23T03:05:05.852Z,20.82
2018-01-23T03:07:14.203Z,20.91
2018-01-23T03:09:21.036Z,20.92
2018-01-23T03:11:29.328Z,20.98
2018-01-23T03:13:35.013Z,20.98
2018-01-23T03:15:41.544Z,20.87
2018-01-23T03:17:47.896Z,20.90
2018-01-23T03:19:54.855Z,20.83
2018-01-23T03:22:01.149Z,20.95
2018-01-23T03:24:07.024Z,20.88
2018-01-23T03:26:13.111Z,20.80
2018-01-23T03:28:18.886Z,20.80
2018-01-23T03:30:26.005Z,20.78
2018-01-23T03:32:32.218Z,20.82
2018-01-23T03:34:38.416Z,20.79
2018-01-23T03:36:44.155Z,20.86
2018-01-23T03:38:50.334Z,20.77
2018-01-23T03:40:56.055Z,20.80
2018-01-23T03:43:02.624Z,20.80
2018-01-23T03:45:08.430Z,20.81
2018-01-23T03:47:14.428Z,20.79
2018-01-23T03:49:20.133Z,20.74
2018-01-23T03:51:27.595Z,20.80
2018-01-23T03:53:34.321Z,20.77
2018-01-23T03:55:40.304Z,20.82
2018-01-23T03:57:45.914Z,20.82
2018-01-23T03:59:52.163Z,20.83
2018-01-23T04:02:01.826Z,20.78
2018-01-23T04:04:07.741Z,20.82
2018-01-23T04:06:13.678Z,20.70
2018-01-23T04:08:19.350Z,20.75
2018-01-23T04:10:26.639Z,20.79
2018-01-23T04:12:32.421Z,20.85
2018-01-23T04:14:39.597Z,20.81
2018-01-23T04:17:01.228Z,20.80
2018-01-23T04:21:27.884Z,20.76
2018-01-23T04:23:33.562Z,20.80
2018-01-23T04:25:39.422Z,20.87
2018-01-23T04:27:45.023Z,20.82
2018-01-23T04:29:50.670Z,20.74
2018-01-23T04:31:56.487Z,20.69
2018-01-23T04:34:02.378Z,20.68
2018-01-23T04:36:08.440Z,20.83
2018-01-23T04:38:14.434Z,20.78
2018-01-23T04:40:20.812Z,20.79
2018-01-23T04:42:29.816Z,20.80
2018-01-23T04:44:35.491Z,20.88
2018-01-23T04:46:41.108Z,20.88
2018-01-23T04:48:48.208Z,20.82
2018-01-23T04:50:56.252Z,20.91
2018-01-23T04:53:01.950Z,20.95
2018-01-23T04:55:08.241Z,20.85
2018-01-23T04:57:14.163Z,20.91
2018-01-23T04:59:19.912Z,20.85
2018-01-23T05:01:28.838Z,20.83
2018-01-23T05:03:34.603Z,20.93
2018-01-23T05:05:40.269Z,20.92
2018-01-23T05:07:46.190Z,20.95
2018-01-23T05:09:52.211Z,20.96
2018-01-23T05:11:58.184Z,20.93
2018-01-23T05:14:04.291Z,20.92
2018-01-23T05:16:10.105Z,20.96
2018-01-23T05:18:15.791Z,20.95
2018-01-23T05:20:21.666Z,20.87
2018-01-23T05:22:29.173Z,20.95
2018-01-23T05:24:34.803Z,20.91
2018-01-23T05:26:40.833Z,20.91
2018-01-23T05:28:47.211Z,20.94
2018-01-23T05:30:54.796Z,20.85
2018-01-23T05:33:02.463Z,20.95
2018-01-23T05:35:08.283Z,20.98
2018-01-23T05:37:31.803Z,20.92
2018-01-23T05:39:39.699Z,20.85
2018-01-23T05:41:46.082Z,20.92
2018-01-23T05:43:52.197Z,20.85
2018-01-23T05:45:58.438Z,20.85
2018-01-23T05:48:04.279Z,20.87
2018-01-23T05:50:10.222Z,20.89
2018-01-23T05:52:16.537Z,20.84
2018-01-23T05:54:22.768Z,20.86
2018-01-23T05:56:33.608Z,20.86
2018-01-23T05:58:39.485Z,20.83
2018-01-23T06:00:45.016Z,20.80
2018-01-23T06:02:51.522Z,20.74
2018-01-23T06:05:00.007Z,20.77
2018-01-23T06:07:09.020Z,20.71
2018-01-23T06:09:15.436Z,20.76
2018-01-23T06:11:23.567Z,20.81
2018-01-23T06:13:42.305Z,20.69
2018-01-23T06:15:50.624Z,20.75
2018-01-23T06:17:58.056Z,20.77
2018-01-23T06:20:05.589Z,20.75
2018-01-23T06:22:13.955Z,20.89
2018-01-23T06:24:20.262Z,20.75
2018-01-23T06:26:30.653Z,20.64
2018-01-23T06:28:36.450Z,20.75
2018-01-23T06:30:43.077Z,20.65
2018-01-23T06:32:49.352Z,20.83
2018-01-23T06:36:52.630Z,20.95
2018-01-23T06:38:58.495Z,20.71
2018-01-23T06:41:19.874Z,20.80
2018-01-23T06:43:28.553Z,20.89
2018-01-23T06:45:38.685Z,20.96
2018-01-23T06:48:18.549Z,20.86
2018-01-23T06:50:29.084Z,20.96
2018-01-23T06:52:35.441Z,20.93
2018-01-23T06:54:42.420Z,21.03
2018-01-23T06:58:15.007Z,20.89
2018-01-23T07:01:28.529Z,20.99
2018-01-23T07:03:35.786Z,20.88
2018-01-23T07:11:03.513Z,21.04
2018-01-23T07:14:21.873Z,20.89
2018-01-23T07:16:58.793Z,21.20
2018-01-23T07:19:05.433Z,21.12
2018-01-23T07:21:14.228Z,21.27
2018-01-23T07:23:22.775Z,21.27
2018-01-23T07:25:44.236Z,21.29
2018-01-23T07:27:54.559Z,21.22
2018-01-23T07:30:01.395Z,21.30
2018-01-23T07:32:08.333Z,21.30
2018-01-23T07:34:19.196Z,21.46
2018-01-23T07:36:26.836Z,21.43
2018-01-23T07:38:34.311Z,21.46
2018-01-23T07:40:40.935Z,21.45
2018-01-23T07:42:52.004Z,21.41
2018-01-23T07:44:57.829Z,21.41
2018-01-23T07:47:03.578Z,21.49
2018-01-23T07:49:09.414Z,21.61
2018-01-23T07:51:15.556Z,21.64
2018-01-23T07:53:21.243Z,21.48
2018-01-23T07:55:29.366Z,21.41
2018-01-23T07:57:36.024Z,21.39
2018-01-23T07:59:43.021Z,21.33
2018-01-23T08:01:50.732Z,21.43
2018-01-23T08:04:00.026Z,21.40
2018-01-23T08:06:08.666Z,21.35
2018-01-23T08:08:17.581Z,21.37
2018-01-23T08:10:28.269Z,21.36
2018-01-23T08:12:38.467Z,21.32
2018-01-23T08:14:46.921Z,21.19
2018-01-23T08:16:54.852Z,21.28
2018-01-23T08:19:03.276Z,21.01
2018-01-23T08:21:12.140Z,21.02
2018-01-23T08:23:22.133Z,20.92
2018-01-23T08:25:36.310Z,20.86
2018-01-23T08:27:44.796Z,21.00
2018-01-23T08:29:56.922Z,20.99
2018-01-23T08:32:10.420Z,21.08
2018-01-23T08:34:23.819Z,20.99
2018-01-23T08:36:37.092Z,21.03
2018-01-23T08:38:46.226Z,21.06
2018-01-23T08:40:57.253Z,21.14
2018-01-23T08:43:05.971Z,21.05
2018-01-23T08:45:20.033Z,20.93
2018-01-23T08:47:45.056Z,21.07
2018-01-23T08:49:52.467Z,20.98
2018-01-23T08:52:03.084Z,21.00
2018-01-23T08:54:11.591Z,21.03
2018-01-23T08:56:18.895Z,21.03
2018-01-23T08:58:29.692Z,21.04
2018-01-23T09:00:47.028Z,21.08
2018-01-23T09:05:13.063Z,21.12
2018-01-23T09:07:20.451Z,21.12
2018-01-23T09:09:31.748Z,21.18
2018-01-23T09:11:37.549Z,21.18
2018-01-23T09:13:44.388Z,21.19
2018-01-23T09:15:51.814Z,21.14
2018-01-23T09:17:58.242Z,21.11
2018-01-23T09:20:03.961Z,21.11
2018-01-23T09:22:10.480Z,21.17
2018-01-23T09:24:17.633Z,21.13
2018-01-23T09:26:26.310Z,21.11
2018-01-23T09:28:32.483Z,21.05
2018-01-23T09:30:38.435Z,20.97
2018-01-23T09:32:46.276Z,21.07
2018-01-23T09:34:58.130Z,21.11
2018-01-23T09:37:06.214Z,21.15
2018-01-23T09:39:12.940Z,21.17
2018-01-23T09:41:21.035Z,21.33
2018-01-23T09:43:31.010Z,21.32
2018-01-23T09:45:42.533Z,21.19
2018-01-23T09:47:53.369Z,21.31
2018-01-23T09:49:59.379Z,21.30
2018-01-23T09:52:12.298Z,21.31
2018-01-23T09:54:20.797Z,21.31
2018-01-23T09:56:33.117Z,21.30
2018-01-23T09:58:38.928Z,21.35
2018-01-23T10:00:48.566Z,21.42
2018-01-23T10:03:58.857Z,21.35
2018-01-23T10:06:05.423Z,21.45
2018-01-23T10:08:11.896Z,21.43
2018-01-23T10:10:20.307Z,21.39
2018-01-23T10:12:36.629Z,21.33
2018-01-23T10:14:54.157Z,21.45
2018-01-23T10:29:12.089Z,21.49
2018-01-23T10:31:23.602Z,21.52
2018-01-23T10:33:33.810Z,21.59
2018-01-23T10:35:43.241Z,21.61
2018-01-23T10:37:56.054Z,21.60
2018-01-23T10:40:09.169Z,21.63
2018-01-23T10:42:22.609Z,21.52
2018-01-23T10:44:34.165Z,21.52
2018-01-23T10:46:41.259Z,21.64
2018-01-23T10:48:48.593Z,21.49
2018-01-23T10:50:55.091Z,21.50
2018-01-23T10:53:04.845Z,21.44
2018-01-23T10:55:16.329Z,21.48
2018-01-23T11:01:21.306Z,21.47
2018-01-23T11:27:30.497Z,21.45
2018-01-23T11:30:00.893Z,21.43
2018-01-23T11:32:09.247Z,21.33
2018-01-23T11:34:24.256Z,21.40
2018-01-23T11:39:26.604Z,21.35
2018-01-23T11:41:36.632Z,21.40
2018-01-23T11:43:55.709Z,21.44
2018-01-23T11:50:29.812Z,21.45
2018-01-23T11:52:38.899Z,21.46
2018-01-23T11:54:45.374Z,21.43
2018-01-23T11:56:54.862Z,21.41
2018-01-23T11:59:02.532Z,21.33
2018-01-23T12:09:36.735Z,21.27
2018-01-23T12:11:49.094Z,21.31
2018-01-23T12:13:56.369Z,21.46
2018-01-23T12:16:12.226Z,21.31
2018-01-23T12:18:21.488Z,21.44
2018-01-23T12:20:33.480Z,21.39
2018-01-23T12:33:15.798Z,21.51
2018-01-23T12:35:28.379Z,21.46
2018-01-23T12:37:35.443Z,21.52
2018-01-23T12:39:42.957Z,21.45
2018-01-23T12:44:28.696Z,21.47
2018-01-23T12:46:41.824Z,21.50
2018-01-23T12:49:01.599Z,21.46
2018-01-23T12:51:13.661Z,21.50
2018-01-23T12:53:36.435Z,21.47
2018-01-23T12:56:05.406Z,21.50
2018-01-23T12:58:19.831Z,21.49
2018-01-23T13:00:38.854Z,21.49
2018-01-23T13:02:45.910Z,21.46
2018-01-23T13:05:07.434Z,21.52
2018-01-23T13:07:14.455Z,21.44
2018-01-23T13:09:25.890Z,21.55
2018-01-23T13:11:40.807Z,21.54
2018-01-23T13:13:49.141Z,21.62
2018-01-23T13:15:55.920Z,21.64
2018-01-23T13:18:03.204Z,21.53
2018-01-23T13:20:11.077Z,21.60
2018-01-23T13:22:21.345Z,21.51
2018-01-23T13:24:29.256Z,21.53
2018-01-23T13:26:48.137Z,21.42
2018-01-23T13:28:58.440Z,21.49
2018-01-23T13:31:15.571Z,21.40
2018-01-23T13:33:22.529Z,21.47
2018-01-23T13:35:43.895Z,21.41
2018-01-23T13:37:49.710Z,21.41
2018-01-23T13:39:59.796Z,21.37
2018-01-23T13:42:12.766Z,21.38
2018-01-23T13:44:19.128Z,21.32
2018-01-23T13:46:28.701Z,21.34
2018-01-23T13:48:40.525Z,21.33
2018-01-23T13:50:52.131Z,21.40
2018-01-23T13:53:05.441Z,21.39
2018-01-23T13:55:14.278Z,21.36
2018-01-23T13:57:22.359Z,21.34
2018-01-23T14:01:44.177Z,21.40
2018-01-23T14:03:54.040Z,21.43
2018-01-23T14:06:01.816Z,21.41
2018-01-23T14:08:13.107Z,21.31
2018-01-23T14:10:20.857Z,21.40
2018-01-23T14:12:34.615Z,21.37
2018-01-23T14:14:45.460Z,21.39
2018-01-23T14:16:55.657Z,21.38
2018-01-23T14:19:17.120Z,21.40
2018-01-23T14:21:25.402Z,21.45
2018-01-23T14:23:51.491Z,21.47
2018-01-23T14:26:09.788Z,21.49
2018-01-23T14:28:16.764Z,21.44
2018-01-23T14:30:26.837Z,21.49
2018-01-23T14:32:38.870Z,21.52
2018-01-23T14:34:46.328Z,21.49
2018-01-23T14:36:53.519Z,21.45
2018-01-23T14:39:00.769Z,21.53
2018-01-23T14:41:10.529Z,21.43
2018-01-23T14:43:20.403Z,21.47
2018-01-23T14:45:28.660Z,21.45
2018-01-23T14:47:35.950Z,21.49
2018-01-23T14:49:42.172Z,21.58
2018-01-23T14:51:48.633Z,21.55
2018-01-23T14:53:54.756Z,21.48
2018-01-23T14:56:00.914Z,21.47
2018-01-23T14:58:08.664Z,21.51
2018-01-23T15:00:16.454Z,21.53
2018-01-23T15:02:25.303Z,21.53
2018-01-23T15:04:33.570Z,21.53
2018-01-23T15:06:40.760Z,21.62
2018-01-23T15:08:47.578Z,21.47
2018-01-23T15:10:56.093Z,21.52
2018-01-23T15:13:02.378Z,21.52
2018-01-23T15:15:09.811Z,21.50
2018-01-23T15:17:16.854Z,21.62
2018-01-23T15:19:38.984Z,21.53
2018-01-23T15:21:45.140Z,21.50
2018-01-23T15:23:52.548Z,21.50
2018-01-23T15:26:00.878Z,21.47
2018-01-23T15:28:09.117Z,21.51
2018-01-23T15:30:15.884Z,21.52
2018-01-23T15:32:23.464Z,21.46
2018-01-23T15:34:38.912Z,21.48
2018-01-23T15:36:44.549Z,21.48
2018-01-23T15:39:02.444Z,21.40
2018-01-23T15:41:08.991Z,21.44
2018-01-23T15:43:15.283Z,21.45
2018-01-23T15:45:27.506Z,21.48
2018-01-23T15:47:37.001Z,21.50
2018-01-23T15:49:45.790Z,21.41
2018-01-23T15:51:53.908Z,21.43
2018-01-23T15:54:03.513Z,21.51
2018-01-23T15:56:09.651Z,21.47
2018-01-23T15:58:15.632Z,21.39
2018-01-23T16:00:21.801Z,21.47
2018-01-23T16:02:31.843Z,21.48
2018-01-23T16:04:39.255Z,21.45
2018-01-23T16:06:48.113Z,21.36
2018-01-23T16:08:56.283Z,21.44
2018-01-23T16:11:05.839Z,21.41
2018-01-23T16:13:16.563Z,21.41
2018-01-23T16:15:23.926Z,21.36
2018-01-23T16:17:35.135Z,21.26
2018-01-23T16:19:52.315Z,21.32
2018-01-23T16:21:59.921Z,21.34
2018-01-23T16:24:11.524Z,21.40
2018-01-23T16:26:26.062Z,21.39
2018-01-23T16:28:38.126Z,21.38
2018-01-23T16:31:06.779Z,21.31
2018-01-23T16:33:14.917Z,21.34
2018-01-23T16:35:21.284Z,21.40
2018-01-23T16:37:28.822Z,21.42
2018-01-23T16:39:38.641Z,21.41
2018-01-23T16:41:48.545Z,21.31
2018-01-23T16:43:55.869Z,21.30
2018-01-23T16:46:02.414Z,21.38
2018-01-23T16:48:10.521Z,21.25
2018-01-23T16:50:18.705Z,21.32
2018-01-23T16:52:27.149Z,21.33
2018-01-23T16:54:35.199Z,21.34
2018-01-23T16:56:43.668Z,21.35
2018-01-23T16:58:52.673Z,21.28
2018-01-23T17:00:59.129Z,21.27
2018-01-23T17:03:07.594Z,21.29
2018-01-23T17:05:15.381Z,21.20
2018-01-23T17:07:22.121Z,21.26
2018-01-23T17:09:29.705Z,21.19
2018-01-23T17:11:36.627Z,21.19
2018-01-23T17:13:42.680Z,21.17
2018-01-23T17:15:50.072Z,21.25
2018-01-23T17:17:57.067Z,21.21
2018-01-23T17:20:05.687Z,21.22
2018-01-23T17:22:12.493Z,21.22
2018-01-23T17:24:18.838Z,21.28
2018-01-23T17:26:27.238Z,21.34
2018-01-23T17:28:36.024Z,21.31
2018-01-23T17:30:42.948Z,21.26
2018-01-23T17:32:49.211Z,21.33
2018-01-23T17:34:59.082Z,21.32
2018-01-23T17:37:07.132Z,21.34
2018-01-23T17:39:15.684Z,21.37
2018-01-23T17:41:27.872Z,21.38
2018-01-23T17:43:40.207Z,21.28
2018-01-23T17:45:56.063Z,21.38
2018-01-23T17:48:02.504Z,21.38
2018-01-23T17:50:14.380Z,21.30
2018-01-23T17:52:21.801Z,21.33
2018-01-23T17:54:34.364Z,21.33
2018-01-23T17:56:50.430Z,21.39
2018-01-23T17:58:59.871Z,21.40
2018-01-23T18:01:07.107Z,21.40
2018-01-23T18:03:13.765Z,21.35
2018-01-23T18:05:24.356Z,21.38
2018-01-23T18:07:34.214Z,21.34
2018-01-23T18:09:40.090Z,21.39
2018-01-23T18:13:52.838Z,21.40
2018-01-23T18:16:00.863Z,21.42
2018-01-23T18:18:07.691Z,21.37
2018-01-23T18:20:31.545Z,21.36
2018-01-23T18:22:39.764Z,21.36
2018-01-23T18:24:47.166Z,21.41
2018-01-23T18:26:58.978Z,21.43
2018-01-23T18:29:06.427Z,21.43
2018-01-23T18:31:29.211Z,21.43
2018-01-23T18:33:41.341Z,21.40
2018-01-23T18:38:14.542Z,21.35
2018-01-23T18:43:03.689Z,21.35
2018-01-23T18:45:22.924Z,21.27
2018-01-23T18:47:32.709Z,21.24
2018-01-23T18:49:52.360Z,21.32
2018-01-23T18:57:45.843Z,21.26
2018-01-23T19:04:55.438Z,21.23
2018-01-23T19:07:02.094Z,21.24
2018-01-23T19:09:14.282Z,21.23
2018-01-23T19:11:22.282Z,21.21
2018-01-23T19:13:32.132Z,21.23
2018-01-23T19:15:42.399Z,21.19
2018-01-23T19:18:06.412Z,21.23
2018-01-23T19:20:13.165Z,21.21
2018-01-23T19:22:22.881Z,21.28
2018-01-23T19:24:39.024Z,21.27
2018-01-23T19:26:46.204Z,21.29
2018-01-23T19:29:04.561Z,21.31
2018-01-23T19:34:09.289Z,21.22
2018-01-23T19:36:16.698Z,21.29
2018-01-23T19:38:51.605Z,21.29
2018-01-23T19:40:59.815Z,21.27
2018-01-23T19:43:12.948Z,21.31
2018-01-23T19:45:22.862Z,21.30
2018-01-23T19:47:31.876Z,21.23
2018-01-23T19:49:43.407Z,21.24
2018-01-23T19:51:58.864Z,21.21
2018-01-23T19:54:08.083Z,21.27
2018-01-23T19:56:14.834Z,21.27
2018-01-23T19:58:28.118Z,21.29
2018-01-23T20:00:36.992Z,21.35
2018-01-23T20:05:46.024Z,21.62
2018-01-23T20:08:02.359Z,21.65
2018-01-23T20:10:13.527Z,21.59
2018-01-23T20:12:31.243Z,21.65
2018-01-23T20:14:39.543Z,21.81
2018-01-23T20:16:45.450Z,21.86
2018-01-23T20:18:55.579Z,21.91
2018-01-23T20:21:02.033Z,21.84
2018-01-23T20:23:09.509Z,22.00
2018-01-23T20:25:27.698Z,21.95
2018-01-23T20:27:43.294Z,21.95
2018-01-23T20:30:10.392Z,21.78
2018-01-23T20:32:21.919Z,21.96
2018-01-23T20:34:33.866Z,21.99
2018-01-23T20:36:43.166Z,21.88
2018-01-23T20:39:20.346Z,21.94
2018-01-23T20:41:28.234Z,21.96
2018-01-23T20:43:44.000Z,21.98
2018-01-23T20:46:04.434Z,22.09
2018-01-23T20:50:58.053Z,22.12
2018-01-23T20:53:12.546Z,22.09
2018-01-23T20:55:19.712Z,22.08
2018-01-23T20:57:29.287Z,22.18
2018-01-23T21:00:13.003Z,22.26
2018-01-23T21:04:59.961Z,22.24
2018-01-23T21:07:18.555Z,22.35
2018-01-23T21:20:35.801Z,22.29
2018-01-23T21:22:42.847Z,22.25
2018-01-23T21:24:50.688Z,22.25
2018-01-23T21:26:57.313Z,22.19
2018-01-23T21:29:03.706Z,22.09
2018-01-23T21:31:09.782Z,22.13
2018-01-23T21:33:15.685Z,22.06
2018-01-23T21:35:22.939Z,21.99
2018-01-23T21:37:35.177Z,22.09
2018-01-23T21:42:11.825Z,22.07
2018-01-23T21:46:57.349Z,22.04
2018-01-23T21:49:06.678Z,21.99
2018-01-23T21:51:15.624Z,22.03
2018-01-23T21:53:22.744Z,22.07
2018-01-23T21:55:32.264Z,22.02
2018-01-23T21:57:38.851Z,22.03
2018-01-23T21:59:54.602Z,22.11
2018-01-23T22:02:00.888Z,22.06
2018-01-23T22:04:08.315Z,22.05
2018-01-23T22:06:15.275Z,22.00
2018-01-23T22:08:23.373Z,22.02
2018-01-23T22:10:32.938Z,22.09
2018-01-23T22:12:39.035Z,22.09
2018-01-23T22:14:44.873Z,22.11
2018-01-23T22:16:52.108Z,22.13
2018-01-23T22:18:58.345Z,22.13
2018-01-23T22:21:04.696Z,22.08
2018-01-23T22:23:12.493Z,22.13
2018-01-23T22:25:19.118Z,22.13
2018-01-23T22:27:30.153Z,22.07
2018-01-23T22:29:37.455Z,22.11
2018-01-23T22:31:43.918Z,22.03
2018-01-23T22:33:50.364Z,22.07
2018-01-23T22:35:58.794Z,22.06
2018-01-23T22:38:09.679Z,22.06
2018-01-23T22:40:17.886Z,22.09
2018-01-23T22:42:24.266Z,22.06
2018-01-23T22:44:34.101Z,22.03
2018-01-23T22:46:39.875Z,22.06
2018-01-23T22:48:45.769Z,22.10
2018-01-23T22:50:54.083Z,22.11
2018-01-23T22:53:01.049Z,22.14
2018-01-23T22:55:07.957Z,22.16
2018-01-23T22:57:13.959Z,22.11
2018-01-23T22:59:21.739Z,22.11
2018-01-23T23:01:35.039Z,22.13
2018-01-23T23:03:41.467Z,22.06
2018-01-23T23:05:58.355Z,22.07
2018-01-23T23:08:04.872Z,22.14
2018-01-23T23:10:10.448Z,22.13
2018-01-23T23:12:21.608Z,22.07
2018-01-23T23:14:30.133Z,22.12
2018-01-23T23:16:36.530Z,22.11
2018-01-23T23:18:43.263Z,22.07
2018-01-23T23:20:50.572Z,22.12
2018-01-23T23:22:59.538Z,22.17
2018-01-23T23:25:06.937Z,22.11
2018-01-23T23:27:47.654Z,22.14
2018-01-23T23:30:00.912Z,21.96
2018-01-23T23:32:06.647Z,21.83
2018-01-23T23:34:13.811Z,21.76
2018-01-23T23:36:20.796Z,21.80
2018-01-23T23:38:28.596Z,21.73
2018-01-23T23:40:35.119Z,21.71
2018-01-23T23:42:41.735Z,21.73
2018-01-23T23:44:48.511Z,21.73
2018-01-23T23:46:54.818Z,21.67
2018-01-23T23:49:00.585Z,21.64
2018-01-23T23:51:06.886Z,21.52
2018-01-23T23:53:13.398Z,21.44
2018-01-23T23:55:19.094Z,21.42
2018-01-23T23:57:26.367Z,21.42
2018-01-23T23:59:32.779Z,21.35
